createdAt,value
2018-03-08T00:00:30.181Z,13.47
2018-03-08T00:02:58.485Z,16.73
2018-03-08T00:05:26.780Z,14.07
2018-03-08T00:07:55.074Z,13.83
2018-03-08T00:10:23.360Z,11.53
2018-03-08T00:12:51.716Z,12.77
2018-03-08T00:15:20.044Z,12.80
2018-03-08T00:17:48.335Z,15.70
2018-03-08T00:20:16.662Z,13.30
2018-03-08T00:22:44.949Z,12.97
2018-03-08T00:25:13.225Z,14.47
2018-03-08T00:27:41.515Z,11.77
2018-03-08T00:30:09.825Z,13.83
2018-03-08T00:32:38.138Z,14.17
2018-03-08T00:35:06.454Z,14.50
2018-03-08T00:37:34.803Z,13.10
2018-03-08T00:40:03.096Z,14.27
2018-03-08T00:42:31.387Z,13.10
2018-03-08T00:44:59.694Z,13.87
2018-03-08T00:47:27.998Z,16.10
2018-03-08T00:49:56.352Z,14.40
2018-03-08T00:52:24.659Z,17.43
2018-03-08T00:54:52.948Z,13.57
2018-03-08T00:57:21.235Z,14.70
2018-03-08T00:59:49.537Z,14.53
2018-03-08T01:02:17.899Z,15.03
2018-03-08T01:04:46.188Z,15.37
2018-03-08T01:07:14.503Z,14.23
2018-03-08T01:09:42.815Z,13.50
2018-03-08T01:12:11.094Z,14.30
2018-03-08T01:14:39.426Z,14.10
2018-03-08T01:17:07.723Z,15.27
2018-03-08T01:19:36.020Z,16.10
2018-03-08T01:22:04.321Z,14.03
2018-03-08T01:24:32.621Z,14.37
2018-03-08T01:27:00.910Z,13.57
2018-03-08T01:29:29.199Z,15.30
2018-03-08T01:31:57.483Z,14.03
2018-03-08T01:34:25.795Z,13.67
2018-03-08T01:36:54.153Z,13.13
2018-03-08T01:39:22.441Z,14.33
2018-03-08T01:41:50.736Z,13.47
2018-03-08T01:44:19.046Z,13.83
2018-03-08T01:46:47.344Z,14.13
2018-03-08T01:49:15.643Z,13.40
2018-03-08T01:51:55.231Z,14.23
2018-03-08T01:54:23.532Z,14.30
2018-03-08T01:56:51.841Z,13.97
2018-03-08T01:59:20.313Z,15.07
2018-03-08T02:01:48.602Z,13.87
2018-03-08T02:04:16.876Z,14.30
2018-03-08T02:06:45.244Z,14.67
2018-03-08T02:09:13.557Z,13.27
2018-03-08T02:11:41.845Z,14.27
2018-03-08T02:14:10.141Z,11.30
2018-03-08T02:16:38.434Z,14.60
2018-03-08T02:19:06.766Z,12.93
2018-03-08T02:21:35.043Z,11.80
2018-03-08T02:24:03.329Z,15.07
2018-03-08T02:26:31.641Z,12.70
2018-03-08T02:28:59.977Z,14.77
2018-03-08T02:31:28.271Z,13.67
2018-03-08T02:33:56.558Z,12.97
2018-03-08T02:36:24.900Z,20.30
2018-03-08T02:38:53.191Z,13.33
2018-03-08T02:41:21.490Z,12.40
2018-03-08T02:43:49.770Z,13.10
2018-03-08T02:46:18.120Z,12.23
2018-03-08T02:48:46.452Z,12.20
2018-03-08T02:51:14.735Z,11.37
2018-03-08T02:53:43.024Z,14.30
2018-03-08T02:56:11.310Z,15.00
2018-03-08T02:58:39.625Z,12.63
2018-03-08T03:01:07.941Z,10.93
2018-03-08T03:03:36.226Z,12.60
2018-03-08T03:06:04.527Z,14.03
2018-03-08T03:08:32.806Z,14.73
2018-03-08T03:11:01.108Z,14.20
2018-03-08T03:13:29.398Z,12.97
2018-03-08T03:15:57.673Z,12.23
2018-03-08T03:18:27.473Z,12.27
2018-03-08T03:20:55.913Z,13.37
2018-03-08T03:23:25.247Z,12.93
2018-03-08T03:25:53.998Z,13.03
2018-03-08T03:28:22.301Z,11.33
2018-03-08T03:30:50.606Z,14.40
2018-03-08T03:33:18.918Z,13.53
2018-03-08T03:35:47.214Z,14.80
2018-03-08T03:38:15.489Z,11.90
2018-03-08T03:40:43.782Z,16.03
2018-03-08T03:43:12.084Z,14.17
2018-03-08T03:45:40.383Z,14.67
2018-03-08T03:48:08.669Z,16.67
2018-03-08T03:50:37.054Z,16.07
2018-03-08T03:53:05.338Z,27.67
2018-03-08T03:55:33.622Z,26.73
2018-03-08T03:58:01.918Z,23.17
2018-03-08T04:00:30.217Z,17.67
2018-03-08T04:02:58.532Z,17.50
2018-03-08T04:05:26.904Z,22.27
2018-03-08T04:07:55.089Z,19.83
2018-03-08T04:10:23.409Z,17.87
2018-03-08T04:12:51.762Z,22.33
2018-03-08T04:15:20.060Z,25.07
2018-03-08T04:17:48.344Z,39.57
2018-03-08T04:20:16.647Z,26.03
2018-03-08T04:22:44.956Z,23.90
2018-03-08T04:25:13.242Z,26.87
2018-03-08T04:27:41.537Z,28.53
2018-03-08T04:30:09.838Z,27.63
2018-03-08T04:32:38.132Z,28.17
2018-03-08T04:35:06.452Z,21.80
2018-03-08T04:37:34.775Z,19.50
2018-03-08T04:40:03.085Z,26.57
2018-03-08T04:42:31.427Z,20.17
2018-03-08T04:44:59.726Z,24.87
2018-03-08T04:47:28.023Z,19.83
2018-03-08T04:49:56.334Z,21.87
2018-03-08T04:52:24.657Z,18.43
2018-03-08T04:54:52.965Z,22.13
2018-03-08T04:57:21.294Z,23.57
2018-03-08T04:59:49.585Z,18.57
2018-03-08T05:02:19.667Z,21.33
2018-03-08T05:04:47.976Z,18.40
2018-03-08T05:07:16.389Z,18.13
2018-03-08T05:09:44.674Z,20.90
2018-03-08T05:12:12.963Z,17.27
2018-03-08T05:14:41.275Z,19.80
2018-03-08T05:17:09.573Z,19.47
2018-03-08T05:19:38.052Z,21.17
2018-03-08T05:22:06.409Z,16.37
2018-03-08T05:24:34.738Z,24.20
2018-03-08T05:27:03.058Z,18.80
2018-03-08T05:29:31.539Z,17.47
2018-03-08T05:31:59.826Z,16.03
2018-03-08T05:34:28.136Z,18.27
2018-03-08T05:36:56.487Z,16.50
2018-03-08T05:39:24.781Z,17.93
2018-03-08T05:41:53.085Z,15.40
2018-03-08T05:44:21.400Z,17.17
2018-03-08T05:46:49.714Z,16.70
2018-03-08T05:49:18.026Z,19.47
2018-03-08T05:51:46.329Z,16.30
2018-03-08T05:54:17.903Z,15.77
2018-03-08T05:56:46.190Z,15.43
2018-03-08T05:59:14.507Z,15.83
2018-03-08T06:01:42.799Z,16.30
2018-03-08T06:04:11.109Z,15.23
2018-03-08T06:06:39.395Z,13.63
2018-03-08T06:09:07.705Z,13.60
2018-03-08T06:11:36.044Z,15.60
2018-03-08T06:14:04.378Z,14.43
2018-03-08T06:16:32.662Z,14.80
2018-03-08T06:19:00.949Z,16.63
2018-03-08T06:21:29.257Z,14.03
2018-03-08T06:23:57.554Z,15.07
2018-03-08T06:26:26.619Z,15.30
2018-03-08T06:28:54.920Z,22.53
2018-03-08T06:31:23.216Z,25.67
2018-03-08T06:33:51.538Z,29.67
2018-03-08T06:36:19.826Z,32.57
2018-03-08T06:38:48.167Z,26.57
2018-03-08T06:41:16.443Z,30.23
2018-03-08T06:43:44.748Z,30.97
2018-03-08T06:46:13.099Z,29.10
2018-03-08T06:48:41.391Z,26.97
2018-03-08T06:51:09.674Z,33.93
2018-03-08T06:53:38.006Z,35.90
2018-03-08T07:50:52.737Z,25.60
2018-03-08T07:53:21.043Z,24.50
2018-03-08T07:55:49.324Z,24.17
2018-03-08T07:58:17.637Z,30.47
2018-03-08T08:00:45.930Z,27.47
2018-03-08T08:03:14.223Z,29.67
2018-03-08T08:05:53.697Z,24.63
2018-03-08T08:11:31.880Z,30.83
2018-03-08T08:14:00.159Z,25.13
2018-03-08T08:16:28.498Z,24.30
2018-03-08T08:18:56.783Z,29.37
2018-03-08T08:21:25.080Z,28.33
2018-03-08T08:23:53.419Z,29.87
2018-03-08T08:26:21.702Z,34.40
2018-03-08T08:28:50.861Z,35.97
2018-03-08T08:31:19.159Z,27.40
2018-03-08T08:33:47.445Z,25.97
2018-03-08T08:36:15.779Z,29.33
2018-03-08T08:38:44.073Z,27.77
2018-03-08T08:41:12.373Z,29.47
2018-03-08T08:43:40.676Z,29.87
2018-03-08T08:46:09.004Z,21.30
2018-03-08T08:48:37.317Z,24.80
2018-03-08T08:51:05.610Z,24.70
2018-03-08T08:53:33.889Z,32.03
2018-03-08T08:56:02.201Z,23.57
2018-03-08T08:58:30.487Z,26.27
2018-03-08T09:00:58.778Z,27.00
2018-03-08T09:03:27.077Z,24.43
2018-03-08T09:05:55.366Z,40.03
2018-03-08T09:08:23.685Z,49.13
2018-03-08T09:13:47.858Z,40.07
2018-03-08T09:16:16.150Z,37.67
2018-03-08T09:18:44.217Z,38.10
2018-03-08T09:21:12.502Z,42.60
2018-03-08T09:23:40.805Z,50.53
2018-03-08T09:26:09.104Z,41.40
2018-03-08T09:28:37.578Z,39.53
2018-03-08T09:31:05.874Z,38.77
2018-03-08T09:33:34.184Z,47.77
2018-03-08T09:36:02.468Z,40.87
2018-03-08T09:38:30.802Z,36.83
2018-03-08T09:40:59.082Z,38.93
2018-03-08T09:43:27.381Z,40.23
2018-03-08T09:45:55.689Z,37.30
2018-03-08T09:48:23.999Z,37.03
2018-03-08T09:50:52.342Z,35.20
2018-03-08T09:53:20.647Z,30.30
2018-03-08T09:55:48.960Z,30.17
2018-03-08T09:58:17.289Z,30.90
2018-03-08T10:00:45.594Z,31.23
2018-03-08T10:03:13.882Z,30.03
2018-03-08T10:05:42.169Z,27.87
2018-03-08T10:08:10.477Z,30.23
2018-03-08T10:10:38.764Z,30.20
2018-03-08T10:13:07.058Z,30.60
2018-03-08T10:15:35.406Z,27.77
2018-03-08T10:18:03.690Z,29.20
2018-03-08T10:20:31.974Z,21.80
2018-03-08T10:23:00.265Z,25.43
2018-03-08T10:25:28.577Z,29.23
2018-03-08T10:27:56.890Z,24.07
2018-03-08T10:30:25.200Z,23.27
2018-03-08T10:32:53.485Z,24.23
2018-03-08T10:35:21.821Z,21.97
2018-03-08T10:37:50.159Z,20.03
2018-03-08T10:40:18.475Z,23.30
2018-03-08T10:42:46.773Z,21.37
2018-03-08T10:45:15.143Z,20.93
2018-03-08T10:47:43.629Z,26.43
2018-03-08T10:50:11.964Z,22.87
2018-03-08T10:52:40.273Z,22.37
2018-03-08T10:55:09.219Z,20.60
2018-03-08T10:57:37.554Z,30.67
2018-03-08T11:00:05.790Z,26.03
2018-03-08T11:02:34.845Z,27.27
2018-03-08T11:05:03.790Z,33.47
2018-03-08T11:07:32.105Z,28.57
2018-03-08T11:10:00.387Z,26.77
2018-03-08T11:12:28.678Z,28.53
2018-03-08T11:14:56.995Z,26.77
2018-03-08T11:17:25.274Z,27.30
2018-03-08T11:19:53.556Z,25.17
2018-03-08T11:22:21.856Z,21.00
2018-03-08T11:24:50.324Z,21.77
2018-03-08T11:27:18.616Z,17.73
2018-03-08T11:29:46.921Z,17.13
2018-03-08T11:32:15.250Z,18.87
2018-03-08T11:34:43.550Z,19.50
2018-03-08T11:37:11.891Z,18.07
2018-03-08T11:39:40.202Z,15.30
2018-03-08T11:42:09.277Z,15.07
2018-03-08T11:44:37.006Z,17.50
2018-03-08T11:47:05.317Z,15.40
2018-03-08T11:49:33.626Z,14.40
2018-03-08T11:52:01.914Z,15.57
2018-03-08T11:54:30.213Z,14.70
2018-03-08T11:56:58.565Z,14.10
2018-03-08T11:59:26.878Z,15.23
2018-03-08T12:01:55.179Z,13.77
2018-03-08T12:04:23.493Z,13.40
2018-03-08T12:06:51.780Z,13.83
2018-03-08T12:09:20.067Z,13.33
2018-03-08T12:11:48.357Z,15.03
2018-03-08T12:14:16.633Z,12.27
2018-03-08T12:16:44.953Z,11.57
2018-03-08T12:19:13.171Z,14.70
2018-03-08T12:21:41.494Z,13.87
2018-03-08T12:24:09.781Z,11.90
2018-03-08T12:26:38.105Z,11.53
2018-03-08T12:29:06.407Z,12.47
2018-03-08T12:31:34.767Z,12.10
2018-03-08T12:34:03.243Z,11.53
2018-03-08T12:36:31.525Z,10.93
2018-03-08T12:38:59.866Z,11.50
2018-03-08T12:41:28.181Z,12.30
2018-03-08T12:43:56.495Z,15.10
2018-03-08T12:46:24.832Z,14.33
2018-03-08T12:48:53.286Z,16.60
2018-03-08T12:51:21.597Z,14.43
2018-03-08T12:53:49.905Z,16.67
2018-03-08T12:56:18.281Z,17.37
2018-03-08T12:58:46.577Z,14.57
2018-03-08T13:01:26.987Z,15.50
2018-03-08T13:03:55.382Z,15.53
2018-03-08T13:06:23.674Z,14.23
2018-03-08T13:08:51.958Z,13.87
2018-03-08T13:11:20.242Z,11.63
2018-03-08T13:13:48.553Z,13.30
2018-03-08T13:16:16.855Z,12.10
2018-03-08T13:18:45.147Z,13.60
2018-03-08T13:21:13.434Z,14.63
2018-03-08T13:23:41.727Z,11.20
2018-03-08T13:26:10.067Z,11.77
2018-03-08T13:28:38.376Z,11.63
2018-03-08T13:31:06.734Z,11.70
2018-03-08T13:33:35.021Z,11.23
2018-03-08T13:36:03.148Z,11.80
2018-03-08T13:38:31.434Z,10.27
2018-03-08T13:40:59.731Z,10.70
2018-03-08T13:43:28.119Z,10.03
2018-03-08T13:45:56.418Z,9.57
2018-03-08T13:48:24.745Z,12.10
2018-03-08T13:50:53.046Z,9.10
2018-03-08T13:53:21.325Z,11.47
2018-03-08T13:55:49.605Z,8.67
2018-03-08T13:58:17.877Z,19.50
2018-03-08T14:00:46.199Z,8.70
2018-03-08T14:03:14.517Z,9.70
2018-03-08T14:05:43.019Z,11.33
2018-03-08T14:08:11.320Z,7.60
2018-03-08T14:10:39.597Z,9.93
2018-03-08T14:13:07.746Z,8.57
2018-03-08T14:15:36.031Z,8.80
2018-03-08T14:18:04.478Z,8.03
2018-03-08T14:20:32.782Z,9.13
2018-03-08T14:23:01.093Z,7.80
2018-03-08T14:25:29.387Z,8.57
2018-03-08T14:27:57.693Z,9.03
2018-03-08T14:30:26.041Z,8.03
2018-03-08T14:32:54.408Z,8.80
2018-03-08T14:35:22.854Z,6.80
2018-03-08T14:37:51.130Z,7.03
2018-03-08T14:40:19.425Z,7.17
2018-03-08T14:42:47.714Z,7.53
2018-03-08T14:45:16.009Z,7.50
2018-03-08T14:47:44.298Z,6.53
2018-03-08T14:50:12.753Z,6.23
2018-03-08T14:52:41.027Z,6.33
2018-03-08T14:55:09.570Z,8.27
2018-03-08T14:57:37.959Z,6.70
2018-03-08T15:00:06.244Z,6.73
2018-03-08T15:02:34.523Z,7.90
2018-03-08T15:05:02.811Z,7.10
2018-03-08T15:07:31.103Z,6.87
2018-03-08T15:09:59.391Z,7.03
2018-03-08T15:12:27.826Z,8.50
2018-03-08T15:14:56.204Z,8.47
2018-03-08T15:17:24.504Z,7.47
2018-03-08T15:19:52.831Z,6.47
2018-03-08T15:22:21.113Z,7.07
2018-03-08T15:24:49.458Z,9.93
2018-03-08T15:27:17.742Z,9.03
2018-03-08T15:29:46.024Z,11.73
2018-03-08T15:32:14.387Z,9.00
2018-03-08T15:34:42.666Z,8.20
2018-03-08T15:37:10.973Z,8.67
2018-03-08T15:39:39.310Z,5.90
2018-03-08T15:42:07.586Z,9.43
2018-03-08T15:44:35.863Z,11.33
2018-03-08T15:47:04.152Z,7.50
2018-03-08T15:49:32.445Z,8.10
2018-03-08T15:52:00.738Z,10.00
2018-03-08T15:54:29.034Z,10.37
2018-03-08T15:56:57.394Z,11.20
2018-03-08T15:59:25.706Z,8.50
2018-03-08T16:01:53.991Z,8.60
2018-03-08T16:04:22.341Z,11.57
2018-03-08T16:10:36.308Z,9.37
2018-03-08T16:13:04.600Z,12.67
2018-03-08T16:15:32.888Z,10.87
2018-03-08T16:18:01.230Z,8.40
2018-03-08T16:20:29.635Z,9.87
2018-03-08T16:22:57.916Z,6.90
2018-03-08T16:25:26.221Z,8.37
2018-03-08T16:27:54.513Z,10.90
2018-03-08T16:30:22.804Z,6.97
2018-03-08T16:32:51.120Z,7.37
2018-03-08T16:35:19.410Z,8.13
2018-03-08T16:37:47.710Z,5.70
2018-03-08T16:40:16.003Z,7.97
2018-03-08T16:42:44.304Z,10.53
2018-03-08T16:45:12.609Z,6.53
2018-03-08T16:47:40.901Z,7.97
2018-03-08T16:50:09.328Z,5.50
2018-03-08T16:52:37.634Z,6.33
2018-03-08T16:55:05.918Z,6.50
2018-03-08T16:57:34.243Z,7.20
2018-03-08T17:00:02.534Z,6.80
2018-03-08T17:02:30.809Z,7.17
2018-03-08T17:04:59.099Z,7.30
2018-03-08T17:07:27.451Z,6.10
2018-03-08T17:09:55.737Z,6.23
2018-03-08T17:12:24.030Z,5.57
2018-03-08T17:14:52.376Z,5.87
2018-03-08T17:17:20.685Z,4.37
2018-03-08T17:19:48.962Z,4.30
2018-03-08T17:22:17.313Z,5.30
2018-03-08T17:24:45.609Z,4.23
2018-03-08T17:27:13.916Z,5.70
2018-03-08T17:29:42.247Z,4.90
2018-03-08T17:32:10.617Z,5.00
